createdAt,value
2023-03-16T00:03:34.638Z,77.65
2023-03-16T00:08:39.227Z,78.13
2023-03-16T00:13:51.690Z,78.08
2023-03-16T00:18:53.995Z,78.45
2023-03-16T00:23:56.587Z,78.46
2023-03-16T00:28:59.069Z,78.86
2023-03-16T00:34:02.893Z,79.26
2023-03-16T00:39:11.293Z,79.25
2023-03-16T00:44:15.433Z,79.52
2023-03-16T00:49:20.322Z,79.05
2023-03-16T00:54:25.064Z,79.40
2023-03-16T00:59:32.043Z,79.28
2023-03-16T01:04:40.441Z,79.76
2023-03-16T01:09:43.870Z,80.37
2023-03-16T01:14:48.024Z,80.54
2023-03-16T01:19:52.080Z,79.38
2023-03-16T01:24:55.686Z,79.91
2023-03-16T01:30:00.223Z,80.82
2023-03-16T01:35:02.580Z,80.17
2023-03-16T01:40:08.907Z,79.04
2023-03-16T01:45:50.792Z,80.37
2023-03-16T01:50:57.003Z,81.12
2023-03-16T01:56:14.007Z,81.35
2023-03-16T02:01:19.825Z,81.49
2023-03-16T02:06:23.845Z,81.63
2023-03-16T02:11:30.807Z,81.93
2023-03-16T02:16:52.150Z,82.18
2023-03-16T02:22:04.385Z,81.82
2023-03-16T02:27:16.708Z,81.89
2023-03-16T02:32:23.353Z,82.06
2023-03-16T02:37:34.014Z,81.92
2023-03-16T02:42:46.304Z,81.16
2023-03-16T02:47:53.731Z,81.59
2023-03-16T02:53:03.346Z,81.64
2023-03-16T02:58:07.016Z,81.91
2023-03-16T03:03:09.616Z,82.13
2023-03-16T03:08:23.045Z,81.54
2023-03-16T03:13:27.342Z,82.07
2023-03-16T03:18:30.831Z,81.83
2023-03-16T03:23:35.579Z,81.48
2023-03-16T03:28:38.156Z,80.81
2023-03-16T03:33:40.976Z,80.55
2023-03-16T03:38:44.377Z,81.01
2023-03-16T03:43:48.195Z,80.80
2023-03-16T03:48:52.211Z,80.96
2023-03-16T03:53:56.583Z,81.52
2023-03-16T03:59:18.537Z,81.45
2023-03-16T04:04:45.890Z,81.65
2023-03-16T04:09:49.023Z,82.38
2023-03-16T04:14:59.924Z,82.53
2023-03-16T04:20:16.172Z,81.90
2023-03-16T04:25:20.024Z,80.98
2023-03-16T04:30:24.010Z,79.47
2023-03-16T04:35:29.595Z,79.39
2023-03-16T04:40:36.199Z,79.77
2023-03-16T04:45:50.654Z,78.52
2023-03-16T04:50:53.421Z,78.09
2023-03-16T04:56:00.592Z,78.17
2023-03-16T05:01:03.276Z,78.22
2023-03-16T05:06:07.405Z,78.40
2023-03-16T05:11:13.859Z,78.56
2023-03-16T05:16:26.710Z,78.61
2023-03-16T05:21:32.122Z,78.42
2023-03-16T05:26:40.763Z,78.43
2023-03-16T05:31:48.792Z,78.71
2023-03-16T05:36:56.215Z,79.51
2023-03-16T05:41:59.553Z,80.20
2023-03-16T05:47:36.690Z,80.34
2023-03-16T05:52:54.322Z,79.69
2023-03-16T05:58:10.666Z,79.37
2023-03-16T06:03:17.457Z,79.12
2023-03-16T06:08:23.408Z,79.42
2023-03-16T06:13:27.503Z,79.91
2023-03-16T06:18:30.138Z,79.04
2023-03-16T06:23:32.727Z,78.50
2023-03-16T06:28:36.185Z,78.17
2023-03-16T06:33:39.154Z,77.53
2023-03-16T06:38:41.491Z,77.25
2023-03-16T06:44:11.562Z,77.39
2023-03-16T06:49:38.926Z,77.27
2023-03-16T06:54:53.847Z,77.32
2023-03-16T06:59:57.852Z,77.44
2023-03-16T07:05:02.165Z,77.54
2023-03-16T07:10:05.041Z,77.68
2023-03-16T07:15:09.090Z,77.64
2023-03-16T07:20:12.952Z,77.42
2023-03-16T07:25:21.477Z,77.22
2023-03-16T07:30:27.316Z,76.96
2023-03-16T07:35:33.527Z,76.98
2023-03-16T07:40:52.328Z,76.79
2023-03-16T07:45:57.245Z,76.52
2023-03-16T07:51:00.306Z,76.83
2023-03-16T07:56:04.018Z,76.52
2023-03-16T08:01:10.906Z,76.08
2023-03-16T08:06:13.277Z,75.43
2023-03-16T08:11:15.977Z,75.17
2023-03-16T08:16:27.694Z,74.57
2023-03-16T08:21:30.451Z,73.78
2023-03-16T08:26:34.426Z,73.44
2023-03-16T08:31:53.443Z,73.48
2023-03-16T08:37:14.221Z,72.40
2023-03-16T08:42:21.180Z,70.81
2023-03-16T08:47:30.830Z,69.12
2023-03-16T08:52:36.673Z,67.94
2023-03-16T08:57:39.365Z,68.15
2023-03-16T09:02:55.570Z,68.40
2023-03-16T09:08:00.214Z,67.76
2023-03-16T09:13:02.714Z,67.29
2023-03-16T09:18:05.792Z,66.09
2023-03-16T09:23:07.884Z,67.09
2023-03-16T09:28:10.479Z,66.52
2023-03-16T09:33:12.425Z,64.69
2023-03-16T09:38:15.057Z,60.98
2023-03-16T09:43:25.595Z,59.46
2023-03-16T09:48:32.880Z,58.47
2023-03-16T09:53:41.062Z,59.87
2023-03-16T09:58:44.007Z,59.83
2023-03-16T10:04:22.086Z,60.89
2023-03-16T10:09:27.355Z,59.63
2023-03-16T10:14:54.260Z,57.99
2023-03-16T10:20:01.484Z,57.30
2023-03-16T10:25:23.867Z,58.16
2023-03-16T10:30:30.088Z,57.12
2023-03-16T10:35:49.631Z,58.96
2023-03-16T10:40:53.022Z,58.81
2023-03-16T10:46:02.373Z,57.43
2023-03-16T10:51:12.751Z,58.70
2023-03-16T10:56:25.292Z,58.23
2023-03-16T11:01:29.432Z,57.14
2023-03-16T11:06:33.536Z,56.44
2023-03-16T11:11:36.582Z,56.41
2023-03-16T11:17:17.797Z,55.67
2023-03-16T11:22:24.214Z,56.66
2023-03-16T11:27:51.443Z,55.86
2023-03-16T11:33:36.745Z,55.05
2023-03-16T11:39:26.236Z,53.33
2023-03-16T11:44:36.324Z,52.50
2023-03-16T11:49:52.188Z,51.96
2023-03-16T11:55:24.872Z,52.83
2023-03-16T12:01:27.283Z,53.32
2023-03-16T12:07:25.930Z,54.05
2023-03-16T12:13:08.555Z,51.75
2023-03-16T12:18:21.794Z,53.61
2023-03-16T12:23:52.244Z,50.75
2023-03-16T12:28:57.584Z,50.18
2023-03-16T12:34:37.382Z,50.14
2023-03-16T12:40:18.098Z,50.50
2023-03-16T12:45:44.119Z,51.65
2023-03-16T12:50:58.590Z,51.98
2023-03-16T12:56:10.186Z,50.95
2023-03-16T13:01:18.554Z,47.55
2023-03-16T13:06:24.146Z,47.75
2023-03-16T13:11:52.974Z,48.52
2023-03-16T13:17:25.896Z,48.63
2023-03-16T13:22:51.368Z,49.34
2023-03-16T13:27:59.219Z,49.48
2023-03-16T13:33:14.653Z,48.67
2023-03-16T13:38:22.061Z,48.75
2023-03-16T13:43:37.414Z,46.13
2023-03-16T13:48:43.753Z,45.72
2023-03-16T13:54:06.494Z,44.65
2023-03-16T13:59:19.471Z,45.00
2023-03-16T14:04:33.961Z,46.45
2023-03-16T14:09:36.938Z,45.39
2023-03-16T14:14:45.886Z,44.28
2023-03-16T14:19:52.056Z,43.10
2023-03-16T14:25:00.694Z,44.08
2023-03-16T14:30:18.516Z,45.35
2023-03-16T14:35:42.882Z,45.75
2023-03-16T14:41:12.836Z,42.86
2023-03-16T14:46:37.623Z,43.27
2023-03-16T14:51:46.086Z,42.71
2023-03-16T14:57:05.540Z,42.44
2023-03-16T15:02:17.101Z,42.11
2023-03-16T15:07:28.630Z,42.79
2023-03-16T15:12:34.398Z,41.16
2023-03-16T15:17:37.739Z,42.29
2023-03-16T15:22:41.121Z,42.49
2023-03-16T15:27:44.548Z,42.66
2023-03-16T15:32:50.005Z,43.24
2023-03-16T15:37:54.873Z,44.34
2023-03-16T15:43:01.635Z,45.64
2023-03-16T15:48:05.390Z,45.90
2023-03-16T15:53:50.274Z,45.75
2023-03-16T15:58:53.619Z,46.64
2023-03-16T16:03:56.119Z,47.15
2023-03-16T16:08:58.431Z,47.68
2023-03-16T16:14:04.142Z,48.10
2023-03-16T16:19:06.476Z,48.54
2023-03-16T16:24:10.773Z,48.93
2023-03-16T16:29:22.407Z,49.89
2023-03-16T16:34:27.154Z,49.85
2023-03-16T16:39:36.967Z,49.97
2023-03-16T16:44:39.788Z,50.14
2023-03-16T16:49:51.964Z,50.39
2023-03-16T16:54:57.182Z,50.67
2023-03-16T16:59:59.466Z,50.81
2023-03-16T17:05:01.542Z,51.26
2023-03-16T17:10:04.251Z,51.86
2023-03-16T17:15:21.608Z,52.15
2023-03-16T17:20:36.052Z,52.66
2023-03-16T17:25:46.755Z,53.01
2023-03-16T17:30:49.364Z,53.29
2023-03-16T17:35:52.529Z,53.94
2023-03-16T17:40:55.880Z,54.67
2023-03-16T17:46:07.396Z,55.18
2023-03-16T17:51:15.005Z,55.66
2023-03-16T17:56:27.055Z,56.08
2023-03-16T18:01:34.497Z,56.48
2023-03-16T18:06:38.057Z,56.94
2023-03-16T18:11:46.706Z,57.39
2023-03-16T18:16:54.623Z,57.90
2023-03-16T18:21:57.674Z,58.57
2023-03-16T18:27:09.324Z,58.97
2023-03-16T18:32:23.530Z,59.06
2023-03-16T18:37:28.294Z,59.27
2023-03-16T18:42:36.599Z,59.67
2023-03-16T18:47:43.961Z,59.83
2023-03-16T18:52:46.879Z,60.07
2023-03-16T18:57:56.614Z,60.37
2023-03-16T19:03:05.518Z,60.54
2023-03-16T19:08:08.104Z,61.05
2023-03-16T19:13:17.436Z,61.65
2023-03-16T19:18:20.265Z,63.80
2023-03-16T19:23:33.369Z,66.21
2023-03-16T19:28:39.700Z,66.87
2023-03-16T19:33:42.396Z,67.16
2023-03-16T19:38:50.403Z,67.05
2023-03-16T19:43:58.216Z,66.69
2023-03-16T19:49:03.493Z,66.54
2023-03-16T19:54:07.086Z,66.35
2023-03-16T19:59:10.709Z,66.11
2023-03-16T20:04:23.398Z,66.06
2023-03-16T20:09:26.577Z,65.96
2023-03-16T20:14:33.277Z,65.88
2023-03-16T20:19:35.877Z,67.04
2023-03-16T20:24:38.708Z,67.61
2023-03-16T20:29:42.585Z,67.39
2023-03-16T20:34:46.999Z,67.29
2023-03-16T20:39:50.445Z,66.72
2023-03-16T20:44:54.008Z,66.14
2023-03-16T20:49:59.499Z,65.94
2023-03-16T20:55:01.755Z,66.36
2023-03-16T21:00:17.902Z,67.25
2023-03-16T21:05:21.061Z,66.82
2023-03-16T21:10:25.091Z,63.57
2023-03-16T21:15:31.161Z,63.35
2023-03-16T21:20:36.735Z,64.70
2023-03-16T21:25:47.700Z,65.18
2023-03-16T21:30:52.932Z,66.90
2023-03-16T21:35:56.371Z,67.74
2023-03-16T21:40:59.900Z,68.19
2023-03-16T21:46:02.742Z,68.68
2023-03-16T21:51:13.597Z,69.24
2023-03-16T21:56:18.850Z,69.60
2023-03-16T22:01:32.373Z,70.11
2023-03-16T22:06:35.873Z,70.54
2023-03-16T22:11:38.641Z,70.93
2023-03-16T22:16:42.119Z,71.30
2023-03-16T22:21:46.643Z,71.81
2023-03-16T22:26:50.276Z,72.03
2023-03-16T22:32:07.700Z,72.24
2023-03-16T22:37:13.924Z,72.30
2023-03-16T22:42:19.666Z,72.72
2023-03-16T22:47:42.530Z,72.99
2023-03-16T22:53:08.247Z,73.07
2023-03-16T22:58:19.137Z,73.00
2023-03-16T23:03:23.479Z,72.94
2023-03-16T23:08:27.341Z,72.92
2023-03-16T23:13:29.588Z,73.05
2023-03-16T23:18:32.294Z,73.15
2023-03-16T23:23:34.440Z,73.12
2023-03-16T23:28:36.994Z,73.13
2023-03-16T23:33:40.974Z,72.98
2023-03-16T23:38:43.743Z,72.96
2023-03-16T23:43:47.635Z,72.86
2023-03-16T23:48:53.544Z,73.02
2023-03-16T23:53:56.595Z,73.22
2023-03-16T23:58:58.807Z,73.35
